Terminal Aerodrome Forecast
Issued by NWS Raleigh/Durham, NC

Home | Current Version | Previous Version | Text Only | Print | Product List | Glossary On
Versions: 1 2 3 4 5 6 7 8 9 10 11 12 13 14 15
000
FTUS42 KRAH 251135
TAFRDU
TAF
KRDU 251135Z 2512/2612 22007KT P6SM BKN250
     FM251600 23010G18KT P6SM SCT040 BKN250
     FM252330 19007KT P6SM FEW050 BKN250=

USA.gov is the U.S. government's official web portal to all federal, state and local government web resources and services.